sensor_id;sensor_type;location;lat;lon;timestamp;P1;durP1;ratioP1;P2;durP2;ratioP2
846;SDS011;410;48.954;9.474;2023-06-14T00:01:11;5.80;;;5.10;;
846;SDS011;410;48.954;9.474;2023-06-14T00:03:15;6.23;;;5.63;;
846;SDS011;410;48.954;9.474;2023-06-14T00:05:21;7.03;;;6.10;;
846;SDS011;410;48.954;9.474;2023-06-14T00:07:33;7.10;;;5.90;;
846;SDS011;410;48.954;9.474;2023-06-14T00:09:37;7.87;;;5.60;;
846;SDS011;410;48.954;9.474;2023-06-14T00:11:40;6.80;;;5.90;;
846;SDS011;410;48.954;9.474;2023-06-14T00:13:44;7.37;;;5.67;;
846;SDS011;410;48.954;9.474;2023-06-14T00:15:47;6.23;;;5.50;;
846;SDS011;410;48.954;9.474;2023-06-14T00:17:50;5.90;;;5.30;;
846;SDS011;410;48.954;9.474;2023-06-14T00:19:53;5.90;;;5.27;;
846;SDS011;410;48.954;9.474;2023-06-14T00:21:59;9.00;;;6.20;;
846;SDS011;410;48.954;9.474;2023-06-14T00:24:03;6.53;;;5.60;;
846;SDS011;410;48.954;9.474;2023-06-14T00:26:07;6.43;;;5.23;;
846;SDS011;410;48.954;9.474;2023-06-14T00:28:11;6.83;;;5.90;;
846;SDS011;410;48.954;9.474;2023-06-14T00:30:14;6.80;;;6.07;;
846;SDS011;410;48.954;9.474;2023-06-14T00:32:18;6.80;;;5.47;;
846;SDS011;410;48.954;9.474;2023-06-14T00:34:26;7.07;;;5.43;;
846;SDS011;410;48.954;9.474;2023-06-14T00:36:29;7.10;;;5.20;;
846;SDS011;410;48.954;9.474;2023-06-14T00:38:34;5.00;;;4.50;;
846;SDS011;410;48.954;9.474;2023-06-14T00:40:37;6.43;;;5.70;;
846;SDS011;410;48.954;9.474;2023-06-14T00:42:40;7.33;;;6.00;;
846;SDS011;410;48.954;9.474;2023-06-14T00:44:44;5.73;;;4.83;;
846;SDS011;410;48.954;9.474;2023-06-14T00:46:47;7.60;;;5.53;;
846;SDS011;410;48.954;9.474;2023-06-14T00:48:51;7.67;;;6.10;;
846;SDS011;410;48.954;9.474;2023-06-14T00:50:55;6.73;;;5.73;;
846;SDS011;410;48.954;9.474;2023-06-14T00:52:58;6.87;;;6.17;;
846;SDS011;410;48.954;9.474;2023-06-14T00:55:04;7.00;;;5.03;;
846;SDS011;410;48.954;9.474;2023-06-14T00:57:08;7.27;;;5.33;;
846;SDS011;410;48.954;9.474;2023-06-14T00:59:12;7.80;;;5.53;;
846;SDS011;410;48.954;9.474;2023-06-14T01:01:17;7.57;;;5.67;;
846;SDS011;410;48.954;9.474;2023-06-14T01:03:20;5.70;;;5.20;;
846;SDS011;410;48.954;9.474;2023-06-14T01:05:24;8.33;;;6.30;;
846;SDS011;410;48.954;9.474;2023-06-14T01:07:30;7.97;;;6.33;;
846;SDS011;410;48.954;9.474;2023-06-14T01:09:43;7.60;;;6.00;;
846;SDS011;410;48.954;9.474;2023-06-14T01:11:54;7.50;;;5.83;;
846;SDS011;410;48.954;9.474;2023-06-14T01:14:01;7.70;;;5.77;;
846;SDS011;410;48.954;9.474;2023-06-14T01:16:05;7.03;;;5.47;;
846;SDS011;410;48.954;9.474;2023-06-14T01:18:09;7.00;;;5.57;;
846;SDS011;410;48.954;9.474;2023-06-14T01:20:22;7.17;;;5.87;;
846;SDS011;410;48.954;9.474;2023-06-14T01:22:26;6.93;;;6.23;;
846;SDS011;410;48.954;9.474;2023-06-14T01:24:31;7.00;;;5.57;;
846;SDS011;410;48.954;9.474;2023-06-14T01:26:37;8.27;;;6.00;;
846;SDS011;410;48.954;9.474;2023-06-14T01:28:47;7.93;;;6.20;;
846;SDS011;410;48.954;9.474;2023-06-14T01:30:52;8.17;;;5.40;;
846;SDS011;410;48.954;9.474;2023-06-14T01:32:56;6.47;;;5.77;;
846;SDS011;410;48.954;9.474;2023-06-14T01:35:01;6.33;;;5.67;;
846;SDS011;410;48.954;9.474;2023-06-14T01:37:05;7.00;;;6.03;;
846;SDS011;410;48.954;9.474;2023-06-14T01:39:09;6.53;;;5.43;;
846;SDS011;410;48.954;9.474;2023-06-14T01:41:14;6.97;;;6.00;;
846;SDS011;410;48.954;9.474;2023-06-14T01:43:18;6.70;;;6.00;;
846;SDS011;410;48.954;9.474;2023-06-14T01:45:22;7.73;;;6.37;;
846;SDS011;410;48.954;9.474;2023-06-14T01:47:26;7.40;;;5.90;;
846;SDS011;410;48.954;9.474;2023-06-14T01:49:30;6.43;;;5.83;;
846;SDS011;410;48.954;9.474;2023-06-14T01:51:36;6.80;;;6.10;;
846;SDS011;410;48.954;9.474;2023-06-14T01:53:39;6.73;;;5.63;;
846;SDS011;410;48.954;9.474;2023-06-14T01:55:44;7.43;;;6.23;;
846;SDS011;410;48.954;9.474;2023-06-14T01:57:51;8.27;;;6.03;;
846;SDS011;410;48.954;9.474;2023-06-14T01:59:55;5.93;;;5.23;;
846;SDS011;410;48.954;9.474;2023-06-14T02:01:59;7.57;;;6.70;;
846;SDS011;410;48.954;9.474;2023-06-14T02:04:02;6.50;;;5.70;;
846;SDS011;410;48.954;9.474;2023-06-14T02:06:06;7.60;;;6.03;;
846;SDS011;410;48.954;9.474;2023-06-14T02:08:09;7.20;;;6.17;;
846;SDS011;410;48.954;9.474;2023-06-14T02:10:12;6.70;;;5.83;;
846;SDS011;410;48.954;9.474;2023-06-14T02:12:17;7.57;;;5.90;;
846;SDS011;410;48.954;9.474;2023-06-14T02:14:22;7.90;;;6.80;;
846;SDS011;410;48.954;9.474;2023-06-14T02:16:25;9.23;;;6.77;;
846;SDS011;410;48.954;9.474;2023-06-14T02:18:30;7.20;;;6.30;;
846;SDS011;410;48.954;9.474;2023-06-14T02:20:33;7.00;;;6.13;;
846;SDS011;410;48.954;9.474;2023-06-14T02:22:37;7.03;;;6.33;;
846;SDS011;410;48.954;9.474;2023-06-14T02:24:41;9.10;;;6.13;;
846;SDS011;410;48.954;9.474;2023-06-14T02:26:44;7.20;;;6.20;;
846;SDS011;410;48.954;9.474;2023-06-14T02:28:49;6.67;;;6.00;;
846;SDS011;410;48.954;9.474;2023-06-14T02:30:54;6.90;;;6.20;;
846;SDS011;410;48.954;9.474;2023-06-14T02:32:57;9.00;;;6.77;;
846;SDS011;410;48.954;9.474;2023-06-14T02:35:01;7.10;;;6.40;;
846;SDS011;410;48.954;9.474;2023-06-14T02:37:05;7.63;;;6.07;;
846;SDS011;410;48.954;9.474;2023-06-14T02:39:08;8.47;;;7.60;;
846;SDS011;410;48.954;9.474;2023-06-14T02:41:12;8.60;;;6.70;;
846;SDS011;410;48.954;9.474;2023-06-14T02:43:16;7.07;;;6.10;;
846;SDS011;410;48.954;9.474;2023-06-14T02:45:19;7.60;;;6.33;;
846;SDS011;410;48.954;9.474;2023-06-14T02:47:24;8.13;;;6.80;;
846;SDS011;410;48.954;9.474;2023-06-14T02:49:29;7.73;;;6.23;;
846;SDS011;410;48.954;9.474;2023-06-14T02:51:33;8.13;;;6.47;;
846;SDS011;410;48.954;9.474;2023-06-14T02:53:36;8.10;;;6.10;;
846;SDS011;410;48.954;9.474;2023-06-14T02:55:40;7.60;;;6.20;;
846;SDS011;410;48.954;9.474;2023-06-14T02:57:43;7.97;;;6.80;;
846;SDS011;410;48.954;9.474;2023-06-14T02:59:46;7.63;;;6.07;;
846;SDS011;410;48.954;9.474;2023-06-14T03:01:49;7.10;;;6.40;;
846;SDS011;410;48.954;9.474;2023-06-14T03:03:54;7.77;;;6.57;;
846;SDS011;410;48.954;9.474;2023-06-14T03:05:58;8.63;;;7.47;;
846;SDS011;410;48.954;9.474;2023-06-14T03:08:08;7.27;;;6.37;;
846;SDS011;410;48.954;9.474;2023-06-14T03:10:12;7.07;;;6.37;;
846;SDS011;410;48.954;9.474;2023-06-14T03:12:18;8.50;;;6.80;;
846;SDS011;410;48.954;9.474;2023-06-14T03:14:23;7.63;;;6.40;;
846;SDS011;410;48.954;9.474;2023-06-14T03:16:26;7.90;;;6.63;;
846;SDS011;410;48.954;9.474;2023-06-14T03:18:31;7.53;;;6.20;;
846;SDS011;410;48.954;9.474;2023-06-14T03:20:40;8.80;;;6.40;;
846;SDS011;410;48.954;9.474;2023-06-14T03:22:44;8.47;;;7.03;;
846;SDS011;410;48.954;9.474;2023-06-14T03:24:49;8.50;;;7.13;;
846;SDS011;410;48.954;9.474;2023-06-14T03:26:53;7.37;;;6.23;;
846;SDS011;410;48.954;9.474;2023-06-14T03:28:57;8.67;;;6.83;;
846;SDS011;410;48.954;9.474;2023-06-14T03:31:00;7.87;;;7.07;;
846;SDS011;410;48.954;9.474;2023-06-14T03:33:06;8.07;;;6.70;;
846;SDS011;410;48.954;9.474;2023-06-14T03:35:13;8.43;;;6.60;;
846;SDS011;410;48.954;9.474;2023-06-14T03:37:22;8.80;;;6.60;;
846;SDS011;410;48.954;9.474;2023-06-14T03:39:25;7.30;;;6.40;;
846;SDS011;410;48.954;9.474;2023-06-14T03:41:30;8.53;;;7.60;;
846;SDS011;410;48.954;9.474;2023-06-14T03:43:34;10.53;;;6.90;;
846;SDS011;410;48.954;9.474;2023-06-14T03:45:37;8.07;;;6.83;;
846;SDS011;410;48.954;9.474;2023-06-14T03:47:41;8.20;;;6.70;;
846;SDS011;410;48.954;9.474;2023-06-14T03:49:44;6.80;;;6.10;;
846;SDS011;410;48.954;9.474;2023-06-14T03:51:47;7.90;;;6.37;;
846;SDS011;410;48.954;9.474;2023-06-14T03:53:57;7.37;;;6.60;;
846;SDS011;410;48.954;9.474;2023-06-14T03:56:06;8.53;;;7.13;;
846;SDS011;410;48.954;9.474;2023-06-14T03:58:16;7.93;;;7.13;;
846;SDS011;410;48.954;9.474;2023-06-14T04:00:20;8.83;;;7.40;;
846;SDS011;410;48.954;9.474;2023-06-14T04:02:23;9.43;;;7.53;;
846;SDS011;410;48.954;9.474;2023-06-14T04:04:26;7.90;;;6.97;;
846;SDS011;410;48.954;9.474;2023-06-14T04:06:32;9.60;;;7.27;;
846;SDS011;410;48.954;9.474;2023-06-14T04:08:38;8.23;;;7.30;;
846;SDS011;410;48.954;9.474;2023-06-14T04:10:44;9.00;;;7.40;;
846;SDS011;410;48.954;9.474;2023-06-14T04:12:48;9.50;;;8.13;;
846;SDS011;410;48.954;9.474;2023-06-14T04:14:53;8.50;;;7.43;;
846;SDS011;410;48.954;9.474;2023-06-14T04:17:05;9.50;;;8.27;;
846;SDS011;410;48.954;9.474;2023-06-14T04:19:10;8.20;;;7.20;;
846;SDS011;410;48.954;9.474;2023-06-14T04:21:13;10.67;;;6.70;;
846;SDS011;410;48.954;9.474;2023-06-14T04:23:17;7.77;;;6.33;;
846;SDS011;410;48.954;9.474;2023-06-14T04:25:20;8.33;;;7.27;;
846;SDS011;410;48.954;9.474;2023-06-14T04:27:27;8.60;;;7.57;;
846;SDS011;410;48.954;9.474;2023-06-14T04:29:33;9.90;;;7.27;;
846;SDS011;410;48.954;9.474;2023-06-14T04:31:41;7.80;;;6.97;;
846;SDS011;410;48.954;9.474;2023-06-14T04:33:45;10.47;;;7.30;;
846;SDS011;410;48.954;9.474;2023-06-14T04:35:52;8.83;;;7.83;;
846;SDS011;410;48.954;9.474;2023-06-14T04:37:58;8.33;;;7.23;;
846;SDS011;410;48.954;9.474;2023-06-14T04:40:02;9.40;;;7.23;;
846;SDS011;410;48.954;9.474;2023-06-14T04:42:13;7.60;;;6.80;;
846;SDS011;410;48.954;9.474;2023-06-14T04:44:19;8.00;;;7.20;;
846;SDS011;410;48.954;9.474;2023-06-14T04:46:27;7.77;;;6.90;;
846;SDS011;410;48.954;9.474;2023-06-14T04:48:31;7.90;;;7.10;;
846;SDS011;410;48.954;9.474;2023-06-14T04:50:37;9.30;;;7.17;;
846;SDS011;410;48.954;9.474;2023-06-14T04:52:42;8.20;;;6.63;;
846;SDS011;410;48.954;9.474;2023-06-14T04:54:46;9.73;;;6.97;;
846;SDS011;410;48.954;9.474;2023-06-14T04:56:53;6.80;;;6.10;;
846;SDS011;410;48.954;9.474;2023-06-14T04:58:59;8.40;;;7.17;;
846;SDS011;410;48.954;9.474;2023-06-14T05:01:04;9.23;;;7.90;;
846;SDS011;410;48.954;9.474;2023-06-14T05:03:11;9.20;;;7.37;;
846;SDS011;410;48.954;9.474;2023-06-14T05:05:15;8.00;;;7.20;;
846;SDS011;410;48.954;9.474;2023-06-14T05:07:22;7.10;;;6.40;;
846;SDS011;410;48.954;9.474;2023-06-14T05:09:26;7.67;;;6.83;;
846;SDS011;410;48.954;9.474;2023-06-14T05:11:30;9.07;;;7.60;;
846;SDS011;410;48.954;9.474;2023-06-14T05:13:34;8.43;;;7.50;;
846;SDS011;410;48.954;9.474;2023-06-14T05:15:37;8.60;;;7.70;;
846;SDS011;410;48.954;9.474;2023-06-14T05:17:42;7.93;;;7.13;;
846;SDS011;410;48.954;9.474;2023-06-14T05:19:54;9.57;;;7.83;;
846;SDS011;410;48.954;9.474;2023-06-14T05:21:58;11.73;;;8.60;;
846;SDS011;410;48.954;9.474;2023-06-14T05:24:02;9.00;;;7.30;;
846;SDS011;410;48.954;9.474;2023-06-14T05:26:05;25.57;;;11.47;;
846;SDS011;410;48.954;9.474;2023-06-14T05:28:08;9.57;;;8.17;;
846;SDS011;410;48.954;9.474;2023-06-14T05:30:13;10.90;;;8.60;;
846;SDS011;410;48.954;9.474;2023-06-14T05:32:17;8.90;;;8.00;;
846;SDS011;410;48.954;9.474;2023-06-14T05:34:21;9.37;;;6.57;;
846;SDS011;410;48.954;9.474;2023-06-14T05:36:24;8.33;;;7.20;;
846;SDS011;410;48.954;9.474;2023-06-14T05:38:29;7.90;;;6.83;;
846;SDS011;410;48.954;9.474;2023-06-14T05:40:32;7.80;;;6.53;;
846;SDS011;410;48.954;9.474;2023-06-14T05:42:35;9.87;;;8.60;;
846;SDS011;410;48.954;9.474;2023-06-14T05:44:38;7.87;;;7.07;;
846;SDS011;410;48.954;9.474;2023-06-14T05:46:41;10.40;;;8.70;;
846;SDS011;410;48.954;9.474;2023-06-14T05:48:44;8.20;;;7.20;;
846;SDS011;410;48.954;9.474;2023-06-14T05:50:49;10.57;;;7.13;;
846;SDS011;410;48.954;9.474;2023-06-14T05:52:53;8.87;;;7.00;;
846;SDS011;410;48.954;9.474;2023-06-14T05:54:56;7.00;;;6.30;;
846;SDS011;410;48.954;9.474;2023-06-14T05:56:59;7.50;;;6.70;;
846;SDS011;410;48.954;9.474;2023-06-14T05:59:03;7.63;;;6.83;;
846;SDS011;410;48.954;9.474;2023-06-14T06:01:06;7.60;;;6.77;;
846;SDS011;410;48.954;9.474;2023-06-14T06:03:09;7.83;;;6.33;;
846;SDS011;410;48.954;9.474;2023-06-14T06:05:13;7.77;;;6.63;;
846;SDS011;410;48.954;9.474;2023-06-14T06:07:19;6.90;;;6.20;;
846;SDS011;410;48.954;9.474;2023-06-14T06:09:22;7.00;;;6.30;;
846;SDS011;410;48.954;9.474;2023-06-14T06:11:27;7.13;;;6.40;;
846;SDS011;410;48.954;9.474;2023-06-14T06:13:45;6.70;;;6.10;;
846;SDS011;410;48.954;9.474;2023-06-14T06:15:48;8.17;;;5.97;;
846;SDS011;410;48.954;9.474;2023-06-14T06:17:52;10.20;;;6.87;;
846;SDS011;410;48.954;9.474;2023-06-14T06:19:57;6.93;;;5.80;;
846;SDS011;410;48.954;9.474;2023-06-14T06:22:00;7.47;;;6.67;;
846;SDS011;410;48.954;9.474;2023-06-14T06:24:05;6.30;;;5.70;;
846;SDS011;410;48.954;9.474;2023-06-14T06:26:09;6.10;;;5.50;;
846;SDS011;410;48.954;9.474;2023-06-14T06:28:12;6.40;;;5.80;;
846;SDS011;410;48.954;9.474;2023-06-14T06:30:15;11.33;;;5.90;;
846;SDS011;410;48.954;9.474;2023-06-14T06:32:18;7.53;;;6.10;;
846;SDS011;410;48.954;9.474;2023-06-14T06:34:21;6.33;;;5.73;;
846;SDS011;410;48.954;9.474;2023-06-14T06:36:24;6.13;;;5.53;;
846;SDS011;410;48.954;9.474;2023-06-14T06:38:28;6.07;;;5.47;;
846;SDS011;410;48.954;9.474;2023-06-14T06:40:32;6.33;;;5.70;;
846;SDS011;410;48.954;9.474;2023-06-14T06:42:35;9.60;;;6.47;;
846;SDS011;410;48.954;9.474;2023-06-14T06:44:40;8.83;;;6.00;;
846;SDS011;410;48.954;9.474;2023-06-14T06:46:43;6.23;;;5.63;;
846;SDS011;410;48.954;9.474;2023-06-14T06:48:46;6.70;;;6.00;;
846;SDS011;410;48.954;9.474;2023-06-14T06:50:49;6.60;;;6.00;;
846;SDS011;410;48.954;9.474;2023-06-14T06:52:52;6.63;;;5.90;;
846;SDS011;410;48.954;9.474;2023-06-14T06:54:56;6.93;;;6.33;;
846;SDS011;410;48.954;9.474;2023-06-14T06:57:00;6.90;;;6.30;;
846;SDS011;410;48.954;9.474;2023-06-14T06:59:03;6.60;;;5.90;;
846;SDS011;410;48.954;9.474;2023-06-14T07:01:07;6.87;;;6.17;;
846;SDS011;410;48.954;9.474;2023-06-14T07:03:10;6.93;;;6.33;;
846;SDS011;410;48.954;9.474;2023-06-14T07:05:14;6.80;;;6.10;;
846;SDS011;410;48.954;9.474;2023-06-14T07:07:18;6.43;;;5.83;;
846;SDS011;410;48.954;9.474;2023-06-14T07:09:21;9.30;;;6.80;;
846;SDS011;410;48.954;9.474;2023-06-14T07:11:26;6.73;;;6.03;;
846;SDS011;410;48.954;9.474;2023-06-14T07:13:30;6.30;;;5.70;;
846;SDS011;410;48.954;9.474;2023-06-14T07:15:33;6.70;;;5.47;;
846;SDS011;410;48.954;9.474;2023-06-14T07:17:36;5.97;;;5.30;;
846;SDS011;410;48.954;9.474;2023-06-14T07:19:40;6.97;;;6.20;;
846;SDS011;410;48.954;9.474;2023-06-14T07:21:44;6.73;;;6.07;;
846;SDS011;410;48.954;9.474;2023-06-14T07:23:48;6.27;;;4.90;;
846;SDS011;410;48.954;9.474;2023-06-14T07:25:51;6.20;;;5.60;;
846;SDS011;410;48.954;9.474;2023-06-14T07:27:54;5.87;;;5.27;;
846;SDS011;410;48.954;9.474;2023-06-14T07:29:59;5.90;;;5.30;;
846;SDS011;410;48.954;9.474;2023-06-14T07:32:02;6.50;;;5.90;;
846;SDS011;410;48.954;9.474;2023-06-14T07:34:06;6.60;;;5.90;;
846;SDS011;410;48.954;9.474;2023-06-14T07:36:09;6.50;;;5.13;;
846;SDS011;410;48.954;9.474;2023-06-14T07:38:12;6.33;;;5.37;;
846;SDS011;410;48.954;9.474;2023-06-14T07:40:15;5.53;;;5.03;;
846;SDS011;410;48.954;9.474;2023-06-14T07:42:19;6.57;;;5.57;;
846;SDS011;410;48.954;9.474;2023-06-14T07:44:22;5.83;;;5.33;;
846;SDS011;410;48.954;9.474;2023-06-14T07:46:27;6.83;;;5.93;;
846;SDS011;410;48.954;9.474;2023-06-14T07:48:30;5.67;;;5.17;;
846;SDS011;410;48.954;9.474;2023-06-14T07:50:33;6.47;;;5.63;;
846;SDS011;410;48.954;9.474;2023-06-14T07:52:36;7.10;;;6.40;;
846;SDS011;410;48.954;9.474;2023-06-14T07:54:40;5.93;;;5.33;;
846;SDS011;410;48.954;9.474;2023-06-14T07:56:43;6.00;;;5.40;;
846;SDS011;410;48.954;9.474;2023-06-14T07:58:46;5.93;;;5.33;;
846;SDS011;410;48.954;9.474;2023-06-14T08:00:50;6.03;;;5.43;;
846;SDS011;410;48.954;9.474;2023-06-14T08:02:54;6.93;;;6.10;;
846;SDS011;410;48.954;9.474;2023-06-14T08:05:02;6.40;;;5.80;;
846;SDS011;410;48.954;9.474;2023-06-14T08:07:05;6.20;;;5.50;;
846;SDS011;410;48.954;9.474;2023-06-14T08:09:09;6.20;;;5.60;;
846;SDS011;410;48.954;9.474;2023-06-14T08:11:12;6.57;;;4.90;;
846;SDS011;410;48.954;9.474;2023-06-14T08:13:15;7.23;;;5.30;;
846;SDS011;410;48.954;9.474;2023-06-14T08:15:18;5.90;;;5.30;;
846;SDS011;410;48.954;9.474;2023-06-14T08:17:22;8.10;;;5.60;;
846;SDS011;410;48.954;9.474;2023-06-14T08:19:27;5.70;;;5.20;;
846;SDS011;410;48.954;9.474;2023-06-14T08:21:30;5.43;;;4.93;;
846;SDS011;410;48.954;9.474;2023-06-14T08:23:35;5.33;;;4.83;;
846;SDS011;410;48.954;9.474;2023-06-14T08:25:38;6.67;;;5.07;;
846;SDS011;410;48.954;9.474;2023-06-14T08:27:41;5.03;;;4.40;;
846;SDS011;410;48.954;9.474;2023-06-14T08:29:44;5.37;;;4.87;;
846;SDS011;410;48.954;9.474;2023-06-14T08:31:48;5.50;;;5.00;;
846;SDS011;410;48.954;9.474;2023-06-14T08:33:51;6.13;;;5.53;;
846;SDS011;410;48.954;9.474;2023-06-14T08:35:56;5.73;;;5.17;;
846;SDS011;410;48.954;9.474;2023-06-14T08:37:59;6.23;;;5.43;;
846;SDS011;410;48.954;9.474;2023-06-14T08:40:02;4.80;;;4.40;;
846;SDS011;410;48.954;9.474;2023-06-14T08:42:07;5.67;;;5.07;;
846;SDS011;410;48.954;9.474;2023-06-14T08:44:24;6.10;;;5.33;;
846;SDS011;410;48.954;9.474;2023-06-14T08:46:27;5.00;;;4.50;;
846;SDS011;410;48.954;9.474;2023-06-14T08:48:32;6.17;;;5.57;;
846;SDS011;410;48.954;9.474;2023-06-14T08:50:36;6.47;;;5.30;;
846;SDS011;410;48.954;9.474;2023-06-14T08:52:41;6.43;;;5.70;;
846;SDS011;410;48.954;9.474;2023-06-14T08:54:51;5.70;;;5.00;;
846;SDS011;410;48.954;9.474;2023-06-14T08:56:54;5.87;;;5.27;;
846;SDS011;410;48.954;9.474;2023-06-14T08:58:58;5.83;;;5.07;;
846;SDS011;410;48.954;9.474;2023-06-14T09:01:04;6.10;;;5.50;;
846;SDS011;410;48.954;9.474;2023-06-14T09:03:09;5.87;;;5.30;;
846;SDS011;410;48.954;9.474;2023-06-14T09:05:15;6.20;;;5.63;;
846;SDS011;410;48.954;9.474;2023-06-14T09:07:19;5.27;;;4.77;;
846;SDS011;410;48.954;9.474;2023-06-14T09:09:24;5.50;;;5.00;;
846;SDS011;410;48.954;9.474;2023-06-14T09:11:27;5.90;;;5.30;;
846;SDS011;410;48.954;9.474;2023-06-14T09:13:30;6.50;;;5.53;;
846;SDS011;410;48.954;9.474;2023-06-14T09:15:35;5.40;;;4.90;;
846;SDS011;410;48.954;9.474;2023-06-14T09:17:38;5.43;;;4.93;;
846;SDS011;410;48.954;9.474;2023-06-14T09:19:41;5.60;;;5.00;;
846;SDS011;410;48.954;9.474;2023-06-14T09:21:45;5.17;;;4.67;;
846;SDS011;410;48.954;9.474;2023-06-14T09:23:50;6.33;;;5.07;;
846;SDS011;410;48.954;9.474;2023-06-14T09:25:55;5.50;;;5.00;;
846;SDS011;410;48.954;9.474;2023-06-14T09:27:58;5.90;;;4.80;;
846;SDS011;410;48.954;9.474;2023-06-14T09:30:02;5.10;;;4.60;;
846;SDS011;410;48.954;9.474;2023-06-14T09:32:06;5.43;;;4.83;;
846;SDS011;410;48.954;9.474;2023-06-14T09:34:10;5.30;;;4.80;;
846;SDS011;410;48.954;9.474;2023-06-14T09:36:15;6.17;;;5.57;;
846;SDS011;410;48.954;9.474;2023-06-14T09:38:18;5.23;;;4.73;;
846;SDS011;410;48.954;9.474;2023-06-14T09:40:22;5.17;;;4.67;;
846;SDS011;410;48.954;9.474;2023-06-14T09:42:26;5.70;;;5.03;;
846;SDS011;410;48.954;9.474;2023-06-14T09:44:31;7.90;;;5.23;;
846;SDS011;410;48.954;9.474;2023-06-14T09:46:34;5.80;;;4.80;;
846;SDS011;410;48.954;9.474;2023-06-14T09:48:38;8.57;;;5.10;;
846;SDS011;410;48.954;9.474;2023-06-14T09:50:44;6.00;;;5.40;;
846;SDS011;410;48.954;9.474;2023-06-14T09:52:49;6.93;;;4.90;;
846;SDS011;410;48.954;9.474;2023-06-14T09:54:55;4.83;;;4.30;;
846;SDS011;410;48.954;9.474;2023-06-14T09:56:58;5.67;;;4.40;;
846;SDS011;410;48.954;9.474;2023-06-14T09:59:04;5.03;;;4.53;;
846;SDS011;410;48.954;9.474;2023-06-14T10:01:09;4.80;;;4.30;;
846;SDS011;410;48.954;9.474;2023-06-14T10:03:16;4.63;;;4.20;;
846;SDS011;410;48.954;9.474;2023-06-14T10:05:24;5.07;;;4.57;;
846;SDS011;410;48.954;9.474;2023-06-14T10:07:32;5.60;;;4.53;;
846;SDS011;410;48.954;9.474;2023-06-14T10:09:37;5.27;;;4.43;;
846;SDS011;410;48.954;9.474;2023-06-14T10:11:41;5.00;;;4.50;;
846;SDS011;410;48.954;9.474;2023-06-14T10:13:46;4.87;;;4.40;;
846;SDS011;410;48.954;9.474;2023-06-14T10:15:55;5.03;;;4.53;;
846;SDS011;410;48.954;9.474;2023-06-14T10:18:02;5.20;;;4.70;;
846;SDS011;410;48.954;9.474;2023-06-14T10:20:21;8.50;;;4.40;;
846;SDS011;410;48.954;9.474;2023-06-14T10:22:32;5.00;;;4.50;;
846;SDS011;410;48.954;9.474;2023-06-14T10:24:40;6.23;;;5.63;;
846;SDS011;410;48.954;9.474;2023-06-14T10:26:51;5.37;;;4.63;;
846;SDS011;410;48.954;9.474;2023-06-14T10:29:01;8.10;;;4.40;;
846;SDS011;410;48.954;9.474;2023-06-14T10:31:06;5.00;;;4.33;;
846;SDS011;410;48.954;9.474;2023-06-14T10:33:10;5.43;;;4.60;;
846;SDS011;410;48.954;9.474;2023-06-14T10:35:18;8.43;;;4.70;;
846;SDS011;410;48.954;9.474;2023-06-14T10:37:21;4.67;;;4.20;;
846;SDS011;410;48.954;9.474;2023-06-14T10:39:25;5.73;;;5.07;;
846;SDS011;410;48.954;9.474;2023-06-14T10:41:29;5.40;;;4.90;;
846;SDS011;410;48.954;9.474;2023-06-14T10:43:32;5.03;;;4.60;;
846;SDS011;410;48.954;9.474;2023-06-14T10:45:35;5.67;;;5.07;;
846;SDS011;410;48.954;9.474;2023-06-14T10:47:40;9.10;;;5.20;;
846;SDS011;410;48.954;9.474;2023-06-14T10:49:43;4.90;;;4.40;;
846;SDS011;410;48.954;9.474;2023-06-14T10:51:49;4.70;;;4.30;;
846;SDS011;410;48.954;9.474;2023-06-14T10:53:53;8.43;;;4.50;;
846;SDS011;410;48.954;9.474;2023-06-14T10:56:03;5.00;;;4.30;;
846;SDS011;410;48.954;9.474;2023-06-14T10:58:09;5.00;;;4.50;;
846;SDS011;410;48.954;9.474;2023-06-14T11:00:13;4.77;;;4.27;;
846;SDS011;410;48.954;9.474;2023-06-14T11:05:04;5.17;;;4.63;;
846;SDS011;410;48.954;9.474;2023-06-14T11:07:10;5.17;;;4.63;;
846;SDS011;410;48.954;9.474;2023-06-14T11:09:41;5.53;;;5.03;;
846;SDS011;410;48.954;9.474;2023-06-14T11:11:59;5.60;;;4.93;;
846;SDS011;410;48.954;9.474;2023-06-14T11:14:03;5.70;;;5.10;;
846;SDS011;410;48.954;9.474;2023-06-14T11:16:10;5.37;;;4.83;;
846;SDS011;410;48.954;9.474;2023-06-14T11:18:15;5.17;;;4.67;;
846;SDS011;410;48.954;9.474;2023-06-14T11:20:20;5.77;;;4.73;;
846;SDS011;410;48.954;9.474;2023-06-14T11:22:25;4.73;;;4.33;;
846;SDS011;410;48.954;9.474;2023-06-14T11:24:28;5.37;;;4.80;;
846;SDS011;410;48.954;9.474;2023-06-14T11:26:32;4.80;;;4.07;;
846;SDS011;410;48.954;9.474;2023-06-14T11:28:37;5.47;;;4.13;;
846;SDS011;410;48.954;9.474;2023-06-14T11:30:42;4.83;;;4.33;;
846;SDS011;410;48.954;9.474;2023-06-14T11:32:46;5.73;;;5.20;;
846;SDS011;410;48.954;9.474;2023-06-14T11:34:49;6.53;;;5.93;;
846;SDS011;410;48.954;9.474;2023-06-14T11:36:54;9.10;;;5.07;;
846;SDS011;410;48.954;9.474;2023-06-14T11:38:58;5.57;;;5.00;;
846;SDS011;410;48.954;9.474;2023-06-14T11:41:02;5.10;;;4.60;;
846;SDS011;410;48.954;9.474;2023-06-14T11:43:06;4.73;;;4.33;;
846;SDS011;410;48.954;9.474;2023-06-14T11:45:10;5.63;;;5.00;;
846;SDS011;410;48.954;9.474;2023-06-14T11:47:14;5.37;;;4.87;;
846;SDS011;410;48.954;9.474;2023-06-14T11:49:17;5.00;;;4.53;;
846;SDS011;410;48.954;9.474;2023-06-14T11:51:20;5.27;;;4.77;;
846;SDS011;410;48.954;9.474;2023-06-14T11:53:27;6.27;;;5.10;;
846;SDS011;410;48.954;9.474;2023-06-14T11:55:31;4.60;;;4.20;;
846;SDS011;410;48.954;9.474;2023-06-14T11:57:34;7.53;;;4.80;;
846;SDS011;410;48.954;9.474;2023-06-14T11:59:41;4.77;;;4.37;;
846;SDS011;410;48.954;9.474;2023-06-14T12:01:47;5.60;;;5.10;;
846;SDS011;410;48.954;9.474;2023-06-14T12:03:52;4.63;;;4.23;;
846;SDS011;410;48.954;9.474;2023-06-14T12:06:03;5.20;;;4.63;;
846;SDS011;410;48.954;9.474;2023-06-14T12:08:09;4.80;;;4.40;;
846;SDS011;410;48.954;9.474;2023-06-14T12:10:21;5.50;;;4.80;;
846;SDS011;410;48.954;9.474;2023-06-14T12:12:24;4.90;;;4.40;;
846;SDS011;410;48.954;9.474;2023-06-14T12:14:28;5.17;;;4.70;;
846;SDS011;410;48.954;9.474;2023-06-14T12:16:32;5.20;;;4.60;;
846;SDS011;410;48.954;9.474;2023-06-14T12:18:36;5.30;;;4.80;;
846;SDS011;410;48.954;9.474;2023-06-14T12:20:41;5.13;;;4.60;;
846;SDS011;410;48.954;9.474;2023-06-14T12:22:50;5.10;;;4.60;;
846;SDS011;410;48.954;9.474;2023-06-14T12:24:54;5.73;;;4.70;;
846;SDS011;410;48.954;9.474;2023-06-14T12:27:01;5.03;;;4.53;;
846;SDS011;410;48.954;9.474;2023-06-14T12:29:06;5.03;;;4.53;;
846;SDS011;410;48.954;9.474;2023-06-14T12:31:10;5.10;;;4.60;;
846;SDS011;410;48.954;9.474;2023-06-14T12:33:14;4.47;;;4.07;;
846;SDS011;410;48.954;9.474;2023-06-14T12:35:18;6.13;;;4.27;;
846;SDS011;410;48.954;9.474;2023-06-14T12:37:21;5.40;;;4.80;;
846;SDS011;410;48.954;9.474;2023-06-14T12:39:25;4.90;;;4.40;;
846;SDS011;410;48.954;9.474;2023-06-14T12:41:28;5.50;;;4.80;;
846;SDS011;410;48.954;9.474;2023-06-14T12:43:33;4.80;;;4.30;;
846;SDS011;410;48.954;9.474;2023-06-14T12:45:36;4.83;;;4.33;;
846;SDS011;410;48.954;9.474;2023-06-14T12:47:39;4.93;;;4.43;;
846;SDS011;410;48.954;9.474;2023-06-14T12:49:43;5.23;;;4.73;;
846;SDS011;410;48.954;9.474;2023-06-14T12:51:46;4.77;;;4.37;;
846;SDS011;410;48.954;9.474;2023-06-14T12:53:49;5.13;;;4.63;;
846;SDS011;410;48.954;9.474;2023-06-14T12:55:52;5.03;;;4.53;;
846;SDS011;410;48.954;9.474;2023-06-14T12:57:56;5.20;;;4.40;;
846;SDS011;410;48.954;9.474;2023-06-14T13:00:00;6.23;;;4.63;;
846;SDS011;410;48.954;9.474;2023-06-14T13:02:12;4.40;;;4.00;;
846;SDS011;410;48.954;9.474;2023-06-14T13:04:16;5.70;;;4.77;;
846;SDS011;410;48.954;9.474;2023-06-14T13:06:20;5.53;;;4.93;;
846;SDS011;410;48.954;9.474;2023-06-14T13:08:23;4.90;;;4.50;;
846;SDS011;410;48.954;9.474;2023-06-14T13:10:27;5.73;;;4.83;;
846;SDS011;410;48.954;9.474;2023-06-14T13:12:30;4.60;;;4.20;;
846;SDS011;410;48.954;9.474;2023-06-14T13:14:33;5.70;;;4.57;;
846;SDS011;410;48.954;9.474;2023-06-14T13:16:38;5.50;;;5.00;;
846;SDS011;410;48.954;9.474;2023-06-14T13:18:41;5.13;;;4.63;;
846;SDS011;410;48.954;9.474;2023-06-14T13:20:45;5.30;;;4.43;;
846;SDS011;410;48.954;9.474;2023-06-14T13:22:51;7.20;;;6.50;;